createdAt,value
2019-03-04T00:01:23.065Z,14.10
2019-03-04T00:04:13.359Z,16.10
2019-03-04T00:06:51.288Z,16.03
2019-03-04T00:09:42.264Z,16.10
2019-03-04T00:12:20.343Z,15.30
2019-03-04T00:17:58.631Z,16.23
2019-03-04T00:26:20.861Z,15.23
2019-03-04T00:28:58.722Z,14.07
2019-03-04T00:31:48.083Z,15.50
2019-03-04T00:34:42.526Z,15.33
2019-03-04T00:37:27.037Z,14.20
2019-03-04T00:40:25.895Z,14.27
2019-03-04T00:43:09.748Z,13.23
2019-03-04T00:45:55.915Z,13.97
2019-03-04T00:59:34.750Z,12.13
2019-03-04T01:02:22.119Z,12.80
2019-03-04T01:05:16.841Z,12.17
2019-03-04T01:07:55.251Z,12.20
2019-03-04T01:10:45.679Z,12.63
2019-03-04T01:13:24.300Z,13.28
2019-03-04T01:16:15.729Z,11.70
2019-03-04T01:18:58.269Z,12.07
2019-03-04T01:21:48.840Z,12.03
2019-03-04T01:24:26.825Z,12.90
2019-03-04T01:27:17.837Z,12.70
2019-03-04T01:29:58.027Z,13.07
2019-03-04T01:32:55.138Z,13.77
2019-03-04T01:35:49.418Z,12.93
2019-03-04T01:38:33.460Z,12.60
2019-03-04T01:44:13.334Z,12.63
2019-03-04T01:47:07.720Z,13.83
2019-03-04T01:49:50.022Z,12.33
2019-03-04T01:52:28.614Z,14.00
2019-03-04T01:55:24.536Z,13.07
2019-03-04T01:58:02.142Z,11.90
2019-03-04T02:00:51.095Z,12.73
2019-03-04T02:03:34.465Z,11.73
2019-03-04T02:06:29.462Z,12.10
2019-03-04T02:09:07.971Z,10.27
2019-03-04T02:11:59.058Z,10.67
2019-03-04T02:14:35.506Z,10.80
2019-03-04T02:17:25.963Z,11.50
2019-03-04T02:20:03.507Z,11.97
2019-03-04T02:22:53.242Z,12.20
2019-03-04T02:26:15.232Z,12.13
2019-03-04T02:29:05.641Z,12.00
2019-03-04T02:31:42.958Z,12.57
2019-03-04T02:37:27.663Z,13.27
2019-03-04T02:43:10.106Z,13.13
2019-03-04T02:46:24.699Z,12.03
2019-03-04T02:49:14.974Z,11.17
2019-03-04T02:51:52.499Z,10.80
2019-03-04T02:54:42.925Z,11.30
2019-03-04T02:57:22.115Z,9.53
2019-03-04T03:00:13.480Z,10.77
2019-03-04T03:02:51.742Z,11.20
2019-03-04T03:08:41.643Z,9.80
2019-03-04T03:11:42.173Z,9.80
2019-03-04T03:14:31.981Z,9.10
2019-03-04T03:17:12.963Z,9.10
2019-03-04T03:25:26.010Z,7.73
2019-03-04T03:28:21.647Z,7.87
2019-03-04T03:33:57.784Z,9.33
2019-03-04T03:36:41.152Z,8.00
2019-03-04T03:42:14.531Z,8.37
2019-03-04T03:47:54.053Z,9.13
2019-03-04T03:50:49.350Z,9.13
2019-03-04T03:53:34.784Z,8.37
2019-03-04T03:56:31.891Z,9.27
2019-03-04T04:04:39.734Z,6.50
2019-03-04T04:07:22.463Z,5.43
2019-03-04T04:10:13.148Z,4.87
2019-03-04T04:12:50.926Z,3.30
2019-03-04T04:15:50.463Z,3.10
2019-03-04T04:18:27.883Z,4.03
2019-03-04T04:21:11.675Z,3.13
2019-03-04T04:23:55.140Z,3.67
2019-03-04T04:26:46.647Z,3.00
2019-03-04T04:29:22.689Z,3.37
2019-03-04T04:34:57.086Z,3.30
2019-03-04T04:37:48.883Z,3.50
2019-03-04T04:40:31.906Z,3.50
2019-03-04T04:43:16.259Z,3.70
2019-03-04T04:46:05.177Z,3.40
2019-03-04T04:48:58.276Z,3.50
2019-03-04T04:54:32.883Z,3.90
2019-03-04T04:57:19.734Z,3.40
2019-03-04T05:00:08.076Z,2.73
2019-03-04T05:02:45.218Z,3.20
2019-03-04T05:05:33.303Z,3.07
2019-03-04T05:08:16.937Z,3.50
2019-03-04T05:11:04.744Z,3.30
2019-03-04T05:13:42.319Z,3.40
2019-03-04T05:16:34.096Z,3.40
2019-03-04T05:19:32.153Z,3.13
2019-03-04T05:22:27.110Z,3.57
2019-03-04T05:25:06.658Z,4.13
2019-03-04T05:27:55.823Z,3.03
2019-03-04T05:30:39.322Z,3.03
2019-03-04T05:33:23.567Z,3.60
2019-03-04T05:36:06.528Z,3.27
2019-03-04T05:39:03.686Z,3.70
2019-03-04T05:41:47.684Z,2.87
2019-03-04T05:44:39.108Z,2.93
2019-03-04T05:47:16.328Z,3.23
2019-03-04T05:50:05.523Z,3.70
2019-03-04T05:53:00.135Z,3.77
2019-03-04T05:55:43.074Z,3.50
2019-03-04T05:58:21.082Z,3.60
2019-03-04T06:01:25.862Z,3.10
2019-03-04T06:04:05.332Z,3.30
2019-03-04T06:07:14.909Z,3.43
2019-03-04T06:09:53.185Z,4.17
2019-03-04T06:12:48.052Z,3.43
2019-03-04T06:15:26.533Z,3.43
2019-03-04T06:18:17.470Z,3.77
2019-03-04T06:20:55.466Z,3.50
2019-03-04T06:23:47.550Z,4.10
2019-03-04T06:26:25.439Z,3.57
2019-03-04T06:29:14.842Z,3.60
2019-03-04T06:31:58.495Z,3.70
2019-03-04T06:34:43.215Z,4.10
2019-03-04T06:37:28.240Z,5.10
2019-03-04T06:40:13.027Z,5.93
2019-03-04T06:42:56.444Z,4.37
2019-03-04T06:48:31.817Z,4.60
2019-03-04T06:51:25.324Z,5.00
2019-03-04T06:57:28.960Z,4.30
2019-03-04T07:00:56.872Z,4.20
2019-03-04T07:03:50.598Z,3.90
2019-03-04T07:06:34.067Z,4.07
2019-03-04T07:09:28.605Z,4.43
2019-03-04T07:12:06.457Z,4.13
2019-03-04T07:14:59.953Z,5.07
2019-03-04T07:17:45.312Z,8.00
2019-03-04T07:20:38.058Z,4.50
2019-03-04T07:23:22.762Z,4.70
2019-03-04T07:28:56.707Z,4.50
2019-03-04T07:31:40.564Z,4.33
2019-03-04T07:34:24.944Z,4.90
2019-03-04T07:37:09.223Z,8.70
2019-03-04T07:39:55.139Z,6.90
2019-03-04T07:42:53.393Z,5.50
2019-03-04T07:45:44.627Z,6.57
2019-03-04T07:48:20.035Z,5.07
2019-03-04T07:53:59.805Z,6.00
2019-03-04T07:59:40.573Z,4.70
2019-03-04T08:02:23.863Z,4.80
2019-03-04T08:05:07.644Z,5.08
2019-03-04T08:08:10.820Z,6.27
2019-03-04T08:11:54.274Z,3.57
2019-03-04T08:14:31.494Z,3.67
2019-03-04T08:17:20.385Z,4.20
2019-03-04T08:20:03.801Z,3.70
2019-03-04T08:22:48.398Z,4.53
2019-03-04T08:25:32.055Z,4.80
2019-03-04T08:28:22.086Z,3.90
2019-03-04T08:31:05.808Z,4.17
2019-03-04T08:33:53.761Z,4.80
2019-03-04T08:36:31.215Z,4.90
2019-03-04T08:45:01.065Z,5.30
2019-03-04T08:47:57.746Z,4.80
2019-03-04T08:50:50.517Z,5.70
2019-03-04T08:53:32.270Z,4.90
2019-03-04T08:56:21.847Z,4.27
2019-03-04T08:59:04.209Z,3.53
2019-03-04T09:12:47.711Z,3.63
2019-03-04T09:15:45.001Z,3.60
2019-03-04T09:18:32.018Z,4.50
2019-03-04T09:21:12.926Z,3.60
2019-03-04T09:24:04.473Z,4.10
2019-03-04T09:27:05.463Z,2.77
2019-03-04T09:29:55.396Z,3.90
2019-03-04T09:32:46.902Z,2.90
2019-03-04T09:35:37.985Z,2.10
2019-03-04T09:38:16.018Z,3.20
2019-03-04T09:41:08.099Z,3.30
2019-03-04T09:43:46.347Z,5.30
2019-03-04T09:46:38.196Z,2.57
2019-03-04T09:49:24.834Z,4.08
2019-03-04T09:57:40.249Z,4.70
2019-03-04T10:00:42.235Z,2.47
2019-03-04T10:07:43.695Z,3.87
2019-03-04T10:10:57.658Z,3.90
2019-03-04T10:17:42.975Z,2.70
2019-03-04T10:20:58.241Z,6.30
2019-03-04T10:27:11.651Z,4.63
2019-03-04T10:30:35.720Z,2.40
2019-03-04T10:40:58.857Z,2.90
2019-03-04T10:49:50.299Z,4.83
2019-03-04T10:55:30.322Z,2.83
2019-03-04T10:58:13.353Z,3.03
2019-03-04T11:01:03.942Z,4.13
2019-03-04T11:03:41.792Z,3.73
2019-03-04T11:06:33.792Z,3.10
2019-03-04T11:12:15.643Z,3.93
2019-03-04T11:15:00.422Z,2.60
2019-03-04T11:17:45.148Z,2.60
2019-03-04T11:20:28.243Z,3.60
2019-03-04T11:26:02.992Z,2.43
2019-03-04T11:28:46.362Z,3.97
2019-03-04T11:31:36.931Z,3.87
2019-03-04T11:34:31.834Z,3.40
2019-03-04T11:37:19.297Z,3.40
2019-03-04T11:40:12.495Z,3.53
2019-03-04T11:45:59.172Z,2.83
2019-03-04T11:48:57.384Z,3.23
2019-03-04T11:51:49.185Z,2.73
2019-03-04T11:54:35.151Z,2.20
2019-03-04T11:57:23.521Z,4.27
2019-03-04T12:00:01.902Z,5.47
2019-03-04T12:02:52.931Z,3.00
2019-03-04T12:05:31.466Z,11.43
2019-03-04T12:08:22.704Z,3.77
2019-03-04T12:11:05.463Z,4.80
2019-03-04T12:13:54.839Z,3.17
2019-03-04T12:16:37.808Z,2.60
2019-03-04T12:19:28.938Z,7.27
2019-03-04T12:22:08.889Z,5.20
2019-03-04T12:27:43.591Z,3.00
2019-03-04T12:30:27.563Z,3.07
2019-03-04T12:38:43.965Z,3.00
2019-03-04T12:41:26.587Z,4.37
2019-03-04T12:44:17.265Z,4.27
2019-03-04T12:47:17.985Z,2.80
2019-03-04T12:50:09.165Z,2.90
2019-03-04T12:52:46.910Z,2.87
2019-03-04T12:58:31.959Z,3.20
2019-03-04T13:01:14.497Z,2.70
2019-03-04T13:06:45.509Z,2.83
2019-03-04T13:09:23.575Z,3.87
2019-03-04T13:17:42.641Z,3.00
2019-03-04T13:20:25.976Z,3.13
2019-03-04T13:23:23.035Z,2.47
2019-03-04T13:26:01.365Z,3.00
2019-03-04T13:28:52.341Z,2.40
2019-03-04T13:31:31.154Z,2.50
2019-03-04T13:34:22.893Z,3.00
2019-03-04T13:36:58.174Z,3.93
2019-03-04T13:39:48.373Z,4.43
2019-03-04T13:42:43.105Z,4.53
2019-03-04T13:45:28.585Z,3.87
2019-03-04T13:48:26.047Z,4.10
2019-03-04T13:54:04.562Z,3.20
2019-03-04T13:57:17.884Z,2.90
2019-03-04T14:00:13.651Z,3.20
2019-03-04T14:02:58.403Z,2.87
2019-03-04T14:05:41.887Z,3.33
2019-03-04T14:08:23.971Z,3.90
2019-03-04T14:13:57.852Z,3.13
2019-03-04T14:16:39.306Z,2.43
2019-03-04T14:19:28.081Z,3.37
2019-03-04T14:22:24.530Z,2.40
2019-03-04T14:25:16.631Z,2.98
2019-03-04T14:27:54.736Z,2.73
2019-03-04T14:33:27.862Z,2.73
2019-03-04T14:36:21.841Z,3.00
2019-03-04T14:39:06.244Z,8.10
2019-03-04T14:42:09.224Z,2.20
2019-03-04T14:45:01.040Z,2.50
2019-03-04T14:47:38.829Z,7.30
2019-03-04T14:53:13.543Z,4.20
2019-03-04T14:55:55.543Z,3.40
2019-03-04T14:58:46.318Z,4.30
2019-03-04T15:01:21.336Z,4.53
2019-03-04T15:04:24.662Z,5.83
2019-03-04T15:10:09.290Z,7.23
2019-03-04T15:12:47.755Z,6.53
2019-03-04T15:15:39.284Z,6.00
2019-03-04T15:18:16.986Z,5.30
2019-03-04T15:23:55.121Z,7.20
2019-03-04T15:26:43.646Z,5.53
2019-03-04T15:29:31.654Z,7.70
2019-03-04T15:32:13.510Z,5.67
2019-03-04T15:35:03.660Z,5.67
2019-03-04T15:37:41.657Z,6.10
2019-03-04T15:40:33.118Z,5.17
2019-03-04T15:43:10.470Z,5.23
2019-03-04T15:46:02.663Z,5.37
2019-03-04T15:48:40.921Z,5.03
2019-03-04T15:54:21.160Z,4.97
2019-03-04T15:57:08.793Z,4.50
2019-03-04T15:59:58.371Z,6.17
2019-03-04T16:02:40.008Z,5.77
2019-03-04T16:08:27.646Z,4.70
2019-03-04T16:11:07.321Z,5.60
2019-03-04T16:13:58.010Z,4.40
2019-03-04T16:16:45.560Z,4.60
2019-03-04T16:19:36.560Z,4.10
2019-03-04T16:22:17.602Z,4.80
2019-03-04T16:30:33.855Z,3.90
2019-03-04T16:36:13.151Z,4.60
2019-03-04T16:39:08.209Z,3.47
2019-03-04T16:44:35.440Z,4.80
2019-03-04T16:47:13.487Z,3.00
2019-03-04T16:52:47.230Z,4.13
2019-03-04T16:55:34.981Z,3.30
2019-03-04T17:03:52.670Z,3.70
2019-03-04T17:07:11.153Z,3.40
2019-03-04T17:10:33.371Z,3.73
2019-03-04T17:13:19.492Z,4.73
2019-03-04T17:16:04.332Z,3.40
2019-03-04T17:18:49.500Z,3.43
2019-03-04T17:21:41.610Z,3.90
2019-03-04T17:24:27.995Z,3.57
2019-03-04T17:27:12.478Z,4.33
2019-03-04T17:29:55.150Z,4.50
2019-03-04T17:32:44.284Z,3.53
2019-03-04T17:35:46.750Z,3.87
2019-03-04T17:38:40.227Z,3.40
2019-03-04T17:41:20.373Z,3.80
2019-03-04T17:44:13.487Z,4.40
2019-03-04T17:46:56.664Z,3.97
2019-03-04T17:49:47.937Z,4.50
2019-03-04T17:52:26.292Z,4.00
2019-03-04T18:00:44.954Z,4.23
2019-03-04T18:14:41.663Z,3.90
2019-03-04T18:17:26.104Z,4.33
2019-03-04T18:22:55.943Z,3.53
2019-03-04T18:25:55.802Z,4.77
2019-03-04T18:29:13.650Z,4.70
2019-03-04T18:52:19.271Z,4.87
2019-03-04T18:55:11.311Z,6.00
2019-03-04T18:58:10.631Z,6.03
2019-03-04T19:00:48.623Z,4.30
2019-03-04T19:03:53.589Z,4.87
2019-03-04T19:06:32.533Z,5.20
2019-03-04T19:09:25.569Z,4.90
2019-03-04T19:12:04.128Z,4.60
2019-03-04T19:17:35.583Z,5.10
2019-03-04T19:20:33.480Z,5.97
2019-03-04T19:23:26.445Z,6.20
2019-03-04T19:26:04.809Z,4.23
2019-03-04T19:28:57.177Z,5.23
2019-03-04T19:31:36.490Z,4.07
2019-03-04T19:37:17.218Z,4.23
2019-03-04T19:40:09.800Z,4.17
2019-03-04T19:43:11.926Z,4.20
2019-03-04T19:46:20.385Z,4.73
2019-03-04T19:49:28.431Z,4.83
2019-03-04T19:52:14.116Z,6.10
2019-03-04T19:55:00.971Z,5.50
2019-03-04T19:57:53.827Z,4.50
2019-03-04T20:09:13.008Z,5.80
2019-03-04T20:11:55.771Z,5.10
2019-03-04T20:14:56.350Z,3.93
2019-03-04T20:17:36.661Z,5.40
2019-03-04T20:20:32.157Z,5.13
2019-03-04T20:23:11.989Z,4.13
2019-03-04T20:25:56.235Z,4.77
2019-03-04T20:28:40.049Z,5.50
2019-03-04T20:31:38.345Z,4.70
2019-03-04T20:34:26.898Z,4.00
2019-03-04T20:37:27.154Z,3.53
2019-03-04T20:40:05.226Z,12.50
2019-03-04T20:43:07.060Z,5.00
2019-03-04T20:45:49.970Z,6.80
2019-03-04T20:48:42.858Z,4.90
2019-03-04T20:51:19.870Z,4.73
2019-03-04T20:54:18.447Z,3.73
2019-03-04T20:56:59.243Z,4.23
2019-03-04T21:00:04.359Z,4.37
2019-03-04T21:02:43.565Z,3.90
2019-03-04T21:08:30.025Z,5.97
2019-03-04T21:11:18.340Z,4.20
2019-03-04T21:14:06.060Z,4.87
2019-03-04T21:16:50.180Z,4.83
2019-03-04T21:19:45.493Z,4.80
2019-03-04T21:22:26.783Z,5.30
2019-03-04T21:25:28.198Z,3.50
2019-03-04T21:28:10.187Z,3.80
2019-03-04T21:34:54.595Z,10.80
2019-03-04T21:37:47.837Z,4.40
2019-03-04T21:41:22.902Z,5.47
2019-03-04T21:44:18.253Z,4.67
2019-03-04T21:47:37.952Z,4.37
2019-03-04T21:50:38.288Z,3.80
2019-03-04T21:53:44.383Z,4.90
2019-03-04T21:56:56.624Z,4.03
2019-03-04T21:59:51.922Z,4.27
2019-03-04T22:03:14.884Z,3.47
2019-03-04T22:08:57.502Z,3.60
2019-03-04T22:12:04.854Z,4.60
2019-03-04T22:15:16.655Z,4.33
2019-03-04T22:18:04.918Z,5.87
2019-03-04T22:24:00.988Z,4.47
2019-03-04T22:27:10.625Z,3.77
2019-03-04T22:33:08.602Z,3.50
2019-03-04T22:36:10.509Z,3.50
2019-03-04T22:39:03.338Z,3.97
2019-03-04T22:41:55.566Z,4.00
2019-03-04T22:44:47.392Z,3.90
2019-03-04T22:47:37.482Z,4.60
2019-03-04T22:50:27.857Z,4.30
2019-03-04T22:53:12.017Z,3.57
2019-03-04T22:55:56.693Z,4.00
2019-03-04T22:58:39.980Z,4.50
2019-03-04T23:01:47.606Z,4.23
2019-03-04T23:04:34.631Z,3.83
2019-03-04T23:07:35.173Z,3.90
2019-03-04T23:10:28.914Z,4.20
2019-03-04T23:13:29.732Z,3.80
2019-03-04T23:16:13.051Z,4.03
2019-03-04T23:19:01.720Z,4.47
2019-03-04T23:21:44.371Z,4.57
2019-03-04T23:24:34.455Z,4.60
2019-03-04T23:27:16.511Z,5.00
2019-03-04T23:30:21.152Z,5.10
2019-03-04T23:33:17.347Z,4.27
2019-03-04T23:36:01.154Z,5.13
2019-03-04T23:38:44.938Z,4.23
2019-03-04T23:41:29.533Z,4.00
2019-03-04T23:44:13.220Z,3.57
2019-03-04T23:46:57.491Z,3.83
2019-03-04T23:49:41.845Z,4.67
2019-03-04T23:52:30.441Z,5.17
2019-03-04T23:55:13.734Z,4.53
2019-03-04T23:58:02.061Z,4.13
